sensor_id;sensor_type;location;lat;lon;timestamp;pressure;altitude;pressure_sealevel;temperature;humidity
19890;BME280;10107;51.198;6.824;2023-03-03T00:01:25;-21319.78;;;-0.06;100.00
19890;BME280;10107;51.198;6.824;2023-03-03T00:05:26;-21318.84;;;-0.09;100.00
19890;BME280;10107;51.198;6.824;2023-03-03T00:09:29;-21317.63;;;-0.14;100.00
19890;BME280;10107;51.198;6.824;2023-03-03T00:13:31;-21317.22;;;-0.15;100.00
19890;BME280;10107;51.198;6.824;2023-03-03T00:17:33;-21316.00;;;-0.20;100.00
19890;BME280;10107;51.198;6.824;2023-03-03T00:21:39;-21314.78;;;-0.25;100.00
19890;BME280;10107;51.198;6.824;2023-03-03T00:25:43;-21313.59;;;-0.29;100.00
19890;BME280;10107;51.198;6.824;2023-03-03T00:29:45;-21312.91;;;-0.32;100.00
19890;BME280;10107;51.198;6.824;2023-03-03T00:33:49;-21313.19;;;-0.31;100.00
19890;BME280;10107;51.198;6.824;2023-03-03T00:37:55;-21314.53;;;-0.26;100.00
19890;BME280;10107;51.198;6.824;2023-03-03T00:41:58;-21317.22;;;-0.15;100.00
19890;BME280;10107;51.198;6.824;2023-03-03T00:46:03;-21321.38;;;0.01;100.00
19890;BME280;10107;51.198;6.824;2023-03-03T00:50:17;-21324.22;;;0.11;100.00
19890;BME280;10107;51.198;6.824;2023-03-03T00:54:25;-21327.44;;;0.24;100.00
19890;BME280;10107;51.198;6.824;2023-03-03T00:58:28;-21327.84;;;0.25;100.00
19890;BME280;10107;51.198;6.824;2023-03-03T01:02:30;-21328.25;;;0.27;100.00
19890;BME280;10107;51.198;6.824;2023-03-03T01:06:33;-21329.59;;;0.32;100.00
19890;BME280;10107;51.198;6.824;2023-03-03T01:10:35;-21331.22;;;0.38;100.00
19890;BME280;10107;51.198;6.824;2023-03-03T01:14:39;-21332.81;;;0.44;100.00
19890;BME280;10107;51.198;6.824;2023-03-03T01:18:40;-21334.44;;;0.50;100.00
19890;BME280;10107;51.198;6.824;2023-03-03T01:22:42;-21334.56;;;0.51;100.00
19890;BME280;10107;51.198;6.824;2023-03-03T01:26:44;-21333.34;;;0.46;100.00
19890;BME280;10107;51.198;6.824;2023-03-03T01:30:46;-21331.59;;;0.39;100.00
19890;BME280;10107;51.198;6.824;2023-03-03T01:34:48;-21330.25;;;0.34;100.00
19890;BME280;10107;51.198;6.824;2023-03-03T01:38:50;-21328.13;;;0.26;100.00
19890;BME280;10107;51.198;6.824;2023-03-03T01:42:51;-21327.03;;;0.22;100.00
19890;BME280;10107;51.198;6.824;2023-03-03T01:46:55;-21325.81;;;0.17;100.00
19890;BME280;10107;51.198;6.824;2023-03-03T01:51:02;-21325.41;;;0.16;100.00
19890;BME280;10107;51.198;6.824;2023-03-03T01:55:07;-21325.69;;;0.17;100.00
19890;BME280;10107;51.198;6.824;2023-03-03T01:59:12;-21326.34;;;0.19;100.00
19890;BME280;10107;51.198;6.824;2023-03-03T02:03:17;-21326.09;;;0.18;100.00
19890;BME280;10107;51.198;6.824;2023-03-03T02:07:20;-21326.63;;;0.21;100.00
19890;BME280;10107;51.198;6.824;2023-03-03T02:11:23;-21328.78;;;0.29;100.00
19890;BME280;10107;51.198;6.824;2023-03-03T02:15:26;-21329.59;;;0.32;100.00
19890;BME280;10107;51.198;6.824;2023-03-03T02:19:32;-21329.06;;;0.30;100.00
19890;BME280;10107;51.198;6.824;2023-03-03T02:23:37;-21328.25;;;0.27;100.00
19890;BME280;10107;51.198;6.824;2023-03-03T02:27:42;-21328.13;;;0.26;100.00
19890;BME280;10107;51.198;6.824;2023-03-03T02:31:44;-21329.31;;;0.31;100.00
19890;BME280;10107;51.198;6.824;2023-03-03T02:35:45;-21329.59;;;0.32;100.00
19890;BME280;10107;51.198;6.824;2023-03-03T02:39:47;-21331.22;;;0.38;100.00
19890;BME280;10107;51.198;6.824;2023-03-03T02:43:52;-21332.00;;;0.41;100.00
19890;BME280;10107;51.198;6.824;2023-03-03T02:47:57;-21332.28;;;0.42;100.00
19890;BME280;10107;51.198;6.824;2023-03-03T02:51:59;-21332.94;;;0.45;100.00
19890;BME280;10107;51.198;6.824;2023-03-03T02:56:01;-21334.16;;;0.49;100.00
19890;BME280;10107;51.198;6.824;2023-03-03T03:00:05;-21332.94;;;0.45;100.00
19890;BME280;10107;51.198;6.824;2023-03-03T03:04:08;-21330.94;;;0.37;100.00
19890;BME280;10107;51.198;6.824;2023-03-03T03:08:15;-21330.13;;;0.34;100.00
19890;BME280;10107;51.198;6.824;2023-03-03T03:12:17;-21331.22;;;0.38;100.00
19890;BME280;10107;51.198;6.824;2023-03-03T03:16:25;-21332.81;;;0.44;100.00
19890;BME280;10107;51.198;6.824;2023-03-03T03:20:26;-21332.41;;;0.43;100.00
19890;BME280;10107;51.198;6.824;2023-03-03T03:24:28;-21332.81;;;0.44;100.00
19890;BME280;10107;51.198;6.824;2023-03-03T03:28:35;-21332.69;;;0.44;100.00
19890;BME280;10107;51.198;6.824;2023-03-03T03:32:39;-21332.41;;;0.43;100.00
19890;BME280;10107;51.198;6.824;2023-03-03T03:36:42;-21333.34;;;0.46;100.00
19890;BME280;10107;51.198;6.824;2023-03-03T03:40:46;-21333.75;;;0.48;100.00
19890;BME280;10107;51.198;6.824;2023-03-03T03:44:47;-21334.44;;;0.50;100.00
19890;BME280;10107;51.198;6.824;2023-03-03T03:48:52;-21334.97;;;0.52;100.00
19890;BME280;10107;51.198;6.824;2023-03-03T03:52:55;-21334.97;;;0.52;100.00
19890;BME280;10107;51.198;6.824;2023-03-03T03:56:56;-21335.78;;;0.55;100.00
19890;BME280;10107;51.198;6.824;2023-03-03T04:01:00;-21336.19;;;0.57;100.00
19890;BME280;10107;51.198;6.824;2023-03-03T04:05:04;-21334.44;;;0.50;100.00
19890;BME280;10107;51.198;6.824;2023-03-03T04:09:06;-21333.34;;;0.46;100.00
19890;BME280;10107;51.198;6.824;2023-03-03T04:13:08;-21333.22;;;0.46;100.00
19890;BME280;10107;51.198;6.824;2023-03-03T04:17:12;-21333.34;;;0.46;100.00
19890;BME280;10107;51.198;6.824;2023-03-03T04:21:17;-21332.69;;;0.44;100.00
19890;BME280;10107;51.198;6.824;2023-03-03T04:25:20;-21331.34;;;0.38;100.00
19890;BME280;10107;51.198;6.824;2023-03-03T04:29:23;-21330.13;;;0.34;100.00
19890;BME280;10107;51.198;6.824;2023-03-03T04:33:25;-21328.50;;;0.28;100.00
19890;BME280;10107;51.198;6.824;2023-03-03T04:37:28;-21326.50;;;0.20;100.00
19890;BME280;10107;51.198;6.824;2023-03-03T04:41:31;-21325.69;;;0.17;100.00
19890;BME280;10107;51.198;6.824;2023-03-03T04:45:32;-21327.03;;;0.22;100.00
19890;BME280;10107;51.198;6.824;2023-03-03T04:49:34;-21327.44;;;0.24;100.00
19890;BME280;10107;51.198;6.824;2023-03-03T04:53:37;-21327.72;;;0.25;100.00
19890;BME280;10107;51.198;6.824;2023-03-03T04:57:41;-21328.13;;;0.26;100.00
19890;BME280;10107;51.198;6.824;2023-03-03T05:01:43;-21328.78;;;0.29;100.00
19890;BME280;10107;51.198;6.824;2023-03-03T05:05:46;-21328.25;;;0.27;100.00
19890;BME280;10107;51.198;6.824;2023-03-03T05:09:49;-21328.13;;;0.26;100.00
19890;BME280;10107;51.198;6.824;2023-03-03T05:13:50;-21327.16;;;0.23;100.00
19890;BME280;10107;51.198;6.824;2023-03-03T05:17:52;-21326.50;;;0.20;100.00
19890;BME280;10107;51.198;6.824;2023-03-03T05:21:55;-21327.72;;;0.25;100.00
19890;BME280;10107;51.198;6.824;2023-03-03T05:25:59;-21328.91;;;0.29;100.00
19890;BME280;10107;51.198;6.824;2023-03-03T05:30:00;-21330.25;;;0.34;100.00
19890;BME280;10107;51.198;6.824;2023-03-03T05:34:02;-21330.41;;;0.35;100.00
19890;BME280;10107;51.198;6.824;2023-03-03T05:38:03;-21330.13;;;0.34;100.00
19890;BME280;10107;51.198;6.824;2023-03-03T05:42:08;-21329.59;;;0.32;100.00
19890;BME280;10107;51.198;6.824;2023-03-03T05:46:10;-21329.06;;;0.30;100.00
19890;BME280;10107;51.198;6.824;2023-03-03T05:50:11;-21327.84;;;0.25;100.00
19890;BME280;10107;51.198;6.824;2023-03-03T05:54:13;-21327.44;;;0.24;100.00
19890;BME280;10107;51.198;6.824;2023-03-03T05:58:16;-21328.25;;;0.27;100.00
19890;BME280;10107;51.198;6.824;2023-03-03T06:02:17;-21329.06;;;0.30;100.00
19890;BME280;10107;51.198;6.824;2023-03-03T06:06:19;-21329.44;;;0.31;100.00
19890;BME280;10107;51.198;6.824;2023-03-03T06:10:20;-21328.38;;;0.27;100.00
19890;BME280;10107;51.198;6.824;2023-03-03T06:14:28;-21327.84;;;0.25;100.00
19890;BME280;10107;51.198;6.824;2023-03-03T06:18:29;-21328.38;;;0.27;100.00
19890;BME280;10107;51.198;6.824;2023-03-03T06:22:30;-21328.50;;;0.28;100.00
19890;BME280;10107;51.198;6.824;2023-03-03T06:26:32;-21330.13;;;0.34;100.00
19890;BME280;10107;51.198;6.824;2023-03-03T06:30:35;-21330.41;;;0.35;100.00
19890;BME280;10107;51.198;6.824;2023-03-03T06:34:37;-21331.75;;;0.40;100.00
19890;BME280;10107;51.198;6.824;2023-03-03T06:38:38;-21332.00;;;0.41;100.00
19890;BME280;10107;51.198;6.824;2023-03-03T06:42:40;-21331.75;;;0.40;100.00
19890;BME280;10107;51.198;6.824;2023-03-03T06:46:42;-21330.53;;;0.35;100.00
19890;BME280;10107;51.198;6.824;2023-03-03T06:50:44;-21330.13;;;0.34;100.00
19890;BME280;10107;51.198;6.824;2023-03-03T06:54:45;-21329.59;;;0.32;100.00
19890;BME280;10107;51.198;6.824;2023-03-03T06:58:47;-21329.59;;;0.32;100.00
19890;BME280;10107;51.198;6.824;2023-03-03T07:02:51;-21329.44;;;0.31;100.00
19890;BME280;10107;51.198;6.824;2023-03-03T07:06:54;-21329.59;;;0.32;100.00
19890;BME280;10107;51.198;6.824;2023-03-03T07:10:55;-21330.53;;;0.35;100.00
19890;BME280;10107;51.198;6.824;2023-03-03T07:15:10;-21332.28;;;0.42;100.00
19890;BME280;10107;51.198;6.824;2023-03-03T07:19:16;-21332.81;;;0.44;100.00
19890;BME280;10107;51.198;6.824;2023-03-03T07:23:20;-21335.78;;;0.55;100.00
19890;BME280;10107;51.198;6.824;2023-03-03T07:27:24;-21338.88;;;0.67;100.00
19890;BME280;10107;51.198;6.824;2023-03-03T07:31:27;-21341.28;;;0.76;100.00
19890;BME280;10107;51.198;6.824;2023-03-03T07:35:36;-21339.53;;;0.70;100.00
19890;BME280;10107;51.198;6.824;2023-03-03T07:39:39;-21340.63;;;0.74;100.00
19890;BME280;10107;51.198;6.824;2023-03-03T07:43:42;-21344.78;;;0.90;100.00
19890;BME280;10107;51.198;6.824;2023-03-03T07:47:49;-21346.78;;;0.97;100.00
19890;BME280;10107;51.198;6.824;2023-03-03T07:51:53;-21349.06;;;1.06;100.00
19890;BME280;10107;51.198;6.824;2023-03-03T07:55:56;-21349.75;;;1.09;100.00
19890;BME280;10107;51.198;6.824;2023-03-03T07:59:59;-21350.00;;;1.10;100.00
19890;BME280;10107;51.198;6.824;2023-03-03T08:04:01;-21353.78;;;1.24;100.00
19890;BME280;10107;51.198;6.824;2023-03-03T08:08:13;-21352.97;;;1.21;100.00
19890;BME280;10107;51.198;6.824;2023-03-03T08:16:37;-21352.97;;;1.21;100.00
19890;BME280;10107;51.198;6.824;2023-03-03T08:20:42;-21352.16;;;1.18;100.00
19890;BME280;10107;51.198;6.824;2023-03-03T08:24:46;-21357.53;;;1.38;100.00
19890;BME280;10107;51.198;6.824;2023-03-03T08:28:47;-21359.97;;;1.48;100.00
19890;BME280;10107;51.198;6.824;2023-03-03T08:32:49;-21361.28;;;1.53;100.00
19890;BME280;10107;51.198;6.824;2023-03-03T08:36:50;-21362.63;;;1.58;100.00
19890;BME280;10107;51.198;6.824;2023-03-03T08:40:53;-21362.91;;;1.59;100.00
19890;BME280;10107;51.198;6.824;2023-03-03T08:44:55;-21364.50;;;1.65;100.00
19890;BME280;10107;51.198;6.824;2023-03-03T08:48:56;-21367.34;;;1.76;100.00
19890;BME280;10107;51.198;6.824;2023-03-03T08:52:58;-21368.81;;;1.82;100.00
19890;BME280;10107;51.198;6.824;2023-03-03T08:57:01;-21367.22;;;1.75;100.00
19890;BME280;10107;51.198;6.824;2023-03-03T09:01:03;-21370.16;;;1.87;100.00
19890;BME280;10107;51.198;6.824;2023-03-03T09:05:05;-21367.47;;;1.76;100.00
19890;BME280;10107;51.198;6.824;2023-03-03T09:09:07;-21369.22;;;1.83;100.00
19890;BME280;10107;51.198;6.824;2023-03-03T09:13:12;-21371.09;;;1.90;100.00
19890;BME280;10107;51.198;6.824;2023-03-03T09:17:21;-21372.56;;;1.96;100.00
19890;BME280;10107;51.198;6.824;2023-03-03T09:21:24;-21372.03;;;1.94;100.00
19890;BME280;10107;51.198;6.824;2023-03-03T09:25:30;-21374.31;;;2.03;100.00
19890;BME280;10107;51.198;6.824;2023-03-03T09:29:36;-21374.03;;;2.02;100.00
19890;BME280;10107;51.198;6.824;2023-03-03T09:33:39;-21372.69;;;1.96;100.00
19890;BME280;10107;51.198;6.824;2023-03-03T09:37:41;-21369.47;;;1.84;100.00
19890;BME280;10107;51.198;6.824;2023-03-03T09:46:06;-21377.66;;;2.15;100.00
19890;BME280;10107;51.198;6.824;2023-03-03T09:50:17;-21383.31;;;2.37;100.00
19890;BME280;10107;51.198;6.824;2023-03-03T09:54:29;-21381.97;;;2.32;100.00
19890;BME280;10107;51.198;6.824;2023-03-03T09:58:40;-21385.31;;;2.45;100.00
19890;BME280;10107;51.198;6.824;2023-03-03T10:02:50;-21386.25;;;2.48;100.00
19890;BME280;10107;51.198;6.824;2023-03-03T10:07:00;-21389.19;;;2.60;100.00
19890;BME280;10107;51.198;6.824;2023-03-03T10:11:09;-21390.66;;;2.65;100.00
19890;BME280;10107;51.198;6.824;2023-03-03T10:15:17;-21390.41;;;2.64;100.00
19890;BME280;10107;51.198;6.824;2023-03-03T10:19:28;-21392.16;;;2.71;100.00
19890;BME280;10107;51.198;6.824;2023-03-03T10:23:41;-21394.69;;;2.81;100.00
19890;BME280;10107;51.198;6.824;2023-03-03T10:27:51;-21400.44;;;3.03;100.00
19890;BME280;10107;51.198;6.824;2023-03-03T10:32:01;-21405.28;;;3.21;98.33
19890;BME280;10107;51.198;6.824;2023-03-03T10:36:10;-21406.47;;;3.26;98.51
19890;BME280;10107;51.198;6.824;2023-03-03T10:40:21;-21410.09;;;3.40;97.47
19890;BME280;10107;51.198;6.824;2023-03-03T10:44:34;-21414.91;;;3.58;97.29
19890;BME280;10107;51.198;6.824;2023-03-03T10:48:45;-21423.47;;;3.91;95.70
19890;BME280;10107;51.198;6.824;2023-03-03T10:52:53;-21423.75;;;3.92;93.65
19890;BME280;10107;51.198;6.824;2023-03-03T10:57:00;-21425.09;;;3.97;94.13
19890;BME280;10107;51.198;6.824;2023-03-03T11:01:05;-21427.63;;;4.07;92.77
19890;BME280;10107;51.198;6.824;2023-03-03T11:05:20;-21428.16;;;4.09;93.41
19890;BME280;10107;51.198;6.824;2023-03-03T11:09:32;-21429.38;;;4.13;93.02
19890;BME280;10107;51.198;6.824;2023-03-03T11:13:37;-21429.91;;;4.15;93.16
19890;BME280;10107;51.198;6.824;2023-03-03T11:17:46;-21430.31;;;4.17;91.17
19890;BME280;10107;51.198;6.824;2023-03-03T11:21:54;-21430.16;;;4.16;90.24
19890;BME280;10107;51.198;6.824;2023-03-03T11:26:02;-21430.69;;;4.19;89.08
19890;BME280;10107;51.198;6.824;2023-03-03T11:30:14;-21439.25;;;4.51;87.08
19890;BME280;10107;51.198;6.824;2023-03-03T11:34:22;-21432.84;;;4.27;89.37
19890;BME280;10107;51.198;6.824;2023-03-03T11:38:38;-21439.25;;;4.51;89.56
19890;BME280;10107;51.198;6.824;2023-03-03T11:42:48;-21441.66;;;4.61;88.78
19890;BME280;10107;51.198;6.824;2023-03-03T11:46:52;-21438.31;;;4.48;89.05
19890;BME280;10107;51.198;6.824;2023-03-03T11:50:54;-21444.34;;;4.71;90.71
19890;BME280;10107;51.198;6.824;2023-03-03T11:54:59;-21449.97;;;4.92;85.98
19890;BME280;10107;51.198;6.824;2023-03-03T11:59:13;-21454.50;;;5.10;85.80
19890;BME280;10107;51.198;6.824;2023-03-03T12:03:23;-21455.69;;;5.14;86.63
19890;BME280;10107;51.198;6.824;2023-03-03T12:07:28;-21455.03;;;5.12;85.96
19890;BME280;10107;51.198;6.824;2023-03-03T12:11:32;-21452.09;;;5.01;86.11
19890;BME280;10107;51.198;6.824;2023-03-03T12:15:39;-21447.16;;;4.82;87.13
19890;BME280;10107;51.198;6.824;2023-03-03T12:19:45;-21448.34;;;4.86;86.75
19890;BME280;10107;51.198;6.824;2023-03-03T12:24:00;-21449.16;;;4.89;86.55
19890;BME280;10107;51.198;6.824;2023-03-03T12:28:07;-21456.63;;;5.18;86.11
19890;BME280;10107;51.198;6.824;2023-03-03T12:32:16;-21462.38;;;5.40;84.32
19890;BME280;10107;51.198;6.824;2023-03-03T12:40:45;-21460.25;;;5.32;83.42
19890;BME280;10107;51.198;6.824;2023-03-03T12:44:54;-21464.91;;;5.50;82.36
19890;BME280;10107;51.198;6.824;2023-03-03T12:49:00;-21474.38;;;5.86;82.19
19890;BME280;10107;51.198;6.824;2023-03-03T12:53:05;-21483.31;;;6.21;80.03
19890;BME280;10107;51.198;6.824;2023-03-03T12:57:18;-21482.00;;;6.15;80.38
19890;BME280;10107;51.198;6.824;2023-03-03T13:01:25;-21471.84;;;5.77;79.68
19890;BME280;10107;51.198;6.824;2023-03-03T13:05:33;-21461.97;;;5.39;81.21
19890;BME280;10107;51.198;6.824;2023-03-03T13:09:45;-21464.91;;;5.50;83.76
19890;BME280;10107;51.198;6.824;2023-03-03T13:13:52;-21474.00;;;5.85;79.58
19890;BME280;10107;51.198;6.824;2023-03-03T13:18:00;-21468.25;;;5.63;80.29
19890;BME280;10107;51.198;6.824;2023-03-03T13:22:05;-21472.78;;;5.80;79.59
19890;BME280;10107;51.198;6.824;2023-03-03T13:26:09;-21476.38;;;5.94;79.00
19890;BME280;10107;51.198;6.824;2023-03-03T13:30:15;-21491.06;;;6.50;78.40
19890;BME280;10107;51.198;6.824;2023-03-03T13:34:19;-21487.72;;;6.38;75.75
19890;BME280;10107;51.198;6.824;2023-03-03T13:38:25;-21488.66;;;6.41;77.50
19890;BME280;10107;51.198;6.824;2023-03-03T13:42:30;-21496.66;;;6.72;76.48
19890;BME280;10107;51.198;6.824;2023-03-03T13:46:36;-21497.47;;;6.75;75.46
19890;BME280;10107;51.198;6.824;2023-03-03T13:50:41;-21496.13;;;6.70;76.38
19890;BME280;10107;51.198;6.824;2023-03-03T13:54:57;-21492.13;;;6.54;76.74
19890;BME280;10107;51.198;6.824;2023-03-03T13:59:07;-21490.66;;;6.49;75.98
19890;BME280;10107;51.198;6.824;2023-03-03T14:07:36;-21488.66;;;6.41;77.06
19890;BME280;10107;51.198;6.824;2023-03-03T14:11:41;-21480.94;;;6.11;78.73
19890;BME280;10107;51.198;6.824;2023-03-03T14:15:47;-21483.47;;;6.21;78.53
19890;BME280;10107;51.198;6.824;2023-03-03T14:19:56;-21489.72;;;6.45;77.71
19890;BME280;10107;51.198;6.824;2023-03-03T14:24:01;-21491.84;;;6.53;77.65
19890;BME280;10107;51.198;6.824;2023-03-03T14:28:10;-21486.53;;;6.33;77.39
19890;BME280;10107;51.198;6.824;2023-03-03T14:32:19;-21480.53;;;6.10;77.61
19890;BME280;10107;51.198;6.824;2023-03-03T14:36:24;-21475.59;;;5.91;79.68
19890;BME280;10107;51.198;6.824;2023-03-03T14:40:29;-21470.38;;;5.71;80.18
19890;BME280;10107;51.198;6.824;2023-03-03T14:44:35;-21466.09;;;5.54;81.04
19890;BME280;10107;51.198;6.824;2023-03-03T14:48:48;-21464.50;;;5.48;81.55
19890;BME280;10107;51.198;6.824;2023-03-03T14:52:51;-21461.03;;;5.35;83.52
19890;BME280;10107;51.198;6.824;2023-03-03T14:57:06;-21454.63;;;5.10;84.44
19890;BME280;10107;51.198;6.824;2023-03-03T15:01:12;-21451.56;;;4.99;85.36
19890;BME280;10107;51.198;6.824;2023-03-03T15:05:19;-21447.56;;;4.83;85.44
19890;BME280;10107;51.198;6.824;2023-03-03T15:09:26;-21446.06;;;4.78;86.66
19890;BME280;10107;51.198;6.824;2023-03-03T15:13:33;-21444.59;;;4.72;87.05
19890;BME280;10107;51.198;6.824;2023-03-03T15:17:37;-21444.88;;;4.73;87.75
19890;BME280;10107;51.198;6.824;2023-03-03T15:21:39;-21443.94;;;4.69;87.47
19890;BME280;10107;51.198;6.824;2023-03-03T15:25:46;-21442.59;;;4.64;87.89
19890;BME280;10107;51.198;6.824;2023-03-03T15:29:52;-21441.28;;;4.59;87.95
19890;BME280;10107;51.198;6.824;2023-03-03T15:34:00;-21439.78;;;4.53;88.51
19890;BME280;10107;51.198;6.824;2023-03-03T15:38:03;-21437.66;;;4.45;87.64
19890;BME280;10107;51.198;6.824;2023-03-03T15:42:10;-21437.94;;;4.46;88.94
19890;BME280;10107;51.198;6.824;2023-03-03T15:46:15;-21438.31;;;4.48;88.07
19890;BME280;10107;51.198;6.824;2023-03-03T15:50:25;-21438.59;;;4.49;88.95
19890;BME280;10107;51.198;6.824;2023-03-03T15:54:34;-21438.19;;;4.47;88.50
19890;BME280;10107;51.198;6.824;2023-03-03T15:58:42;-21437.66;;;4.45;89.68
19890;BME280;10107;51.198;6.824;2023-03-03T16:02:49;-21436.06;;;4.39;89.18
19890;BME280;10107;51.198;6.824;2023-03-03T16:06:55;-21434.84;;;4.34;90.16
19890;BME280;10107;51.198;6.824;2023-03-03T16:11:01;-21433.50;;;4.29;90.14
19890;BME280;10107;51.198;6.824;2023-03-03T16:15:16;-21432.56;;;4.26;90.58
19890;BME280;10107;51.198;6.824;2023-03-03T16:19:25;-21430.97;;;4.20;91.22
19890;BME280;10107;51.198;6.824;2023-03-03T16:23:36;-21430.31;;;4.17;91.75
19890;BME280;10107;51.198;6.824;2023-03-03T16:27:41;-21429.09;;;4.12;91.87
19890;BME280;10107;51.198;6.824;2023-03-03T16:31:44;-21427.63;;;4.07;92.55
19890;BME280;10107;51.198;6.824;2023-03-03T16:35:52;-21426.97;;;4.04;92.90
19890;BME280;10107;51.198;6.824;2023-03-03T16:39:59;-21425.63;;;3.99;93.29
19890;BME280;10107;51.198;6.824;2023-03-03T16:44:03;-21423.47;;;3.91;93.37
19890;BME280;10107;51.198;6.824;2023-03-03T16:48:21;-21420.28;;;3.79;94.68
19890;BME280;10107;51.198;6.824;2023-03-03T16:52:28;-21416.13;;;3.63;94.76
19890;BME280;10107;51.198;6.824;2023-03-03T16:56:35;-21412.09;;;3.47;96.73
19890;BME280;10107;51.198;6.824;2023-03-03T17:00:39;-21409.69;;;3.38;97.48
19890;BME280;10107;51.198;6.824;2023-03-03T17:04:45;-21407.69;;;3.30;98.18
19890;BME280;10107;51.198;6.824;2023-03-03T17:13:18;-21398.84;;;2.96;100.00
19890;BME280;10107;51.198;6.824;2023-03-03T17:17:27;-21393.91;;;2.77;100.00
19890;BME280;10107;51.198;6.824;2023-03-03T17:21:31;-21389.47;;;2.61;100.00
19890;BME280;10107;51.198;6.824;2023-03-03T17:25:36;-21382.91;;;2.35;100.00
19890;BME280;10107;51.198;6.824;2023-03-03T17:29:44;-21377.81;;;2.16;100.00
19890;BME280;10107;51.198;6.824;2023-03-03T17:33:55;-21372.97;;;1.97;100.00
19890;BME280;10107;51.198;6.824;2023-03-03T17:38:01;-21368.00;;;1.78;100.00
19890;BME280;10107;51.198;6.824;2023-03-03T17:42:07;-21363.31;;;1.61;100.00
19890;BME280;10107;51.198;6.824;2023-03-03T17:46:14;-21359.16;;;1.45;100.00
19890;BME280;10107;51.198;6.824;2023-03-03T17:50:25;-21355.78;;;1.32;100.00
19890;BME280;10107;51.198;6.824;2023-03-03T17:54:36;-21355.13;;;1.29;100.00
19890;BME280;10107;51.198;6.824;2023-03-03T17:58:50;-21354.31;;;1.26;100.00
19890;BME280;10107;51.198;6.824;2023-03-03T18:03:16;-21354.19;;;1.26;100.00
19890;BME280;10107;51.198;6.824;2023-03-03T18:07:35;-21353.25;;;1.22;100.00
19890;BME280;10107;51.198;6.824;2023-03-03T18:16:02;-21349.22;;;1.07;100.00
19890;BME280;10107;51.198;6.824;2023-03-03T18:24:36;-21344.50;;;0.89;100.00
19890;BME280;10107;51.198;6.824;2023-03-03T18:28:44;-21341.97;;;0.79;100.00
19890;BME280;10107;51.198;6.824;2023-03-03T18:32:47;-21339.41;;;0.69;100.00
19890;BME280;10107;51.198;6.824;2023-03-03T18:37:01;-21336.56;;;0.58;100.00
19890;BME280;10107;51.198;6.824;2023-03-03T18:41:04;-21335.38;;;0.54;100.00
19890;BME280;10107;51.198;6.824;2023-03-03T18:54:04;-21335.50;;;0.54;100.00
19890;BME280;10107;51.198;6.824;2023-03-03T18:58:35;-21338.19;;;0.65;100.00
19890;BME280;10107;51.198;6.824;2023-03-03T19:02:37;-21341.00;;;0.75;100.00
19890;BME280;10107;51.198;6.824;2023-03-03T19:11:30;-21344.91;;;0.90;100.00
19890;BME280;10107;51.198;6.824;2023-03-03T19:20:01;-21348.69;;;1.05;100.00
19890;BME280;10107;51.198;6.824;2023-03-03T19:28:28;-21355.38;;;1.30;100.00
19890;BME280;10107;51.198;6.824;2023-03-03T19:32:45;-21358.75;;;1.43;100.00
19890;BME280;10107;51.198;6.824;2023-03-03T19:37:04;-21361.69;;;1.54;100.00
19890;BME280;10107;51.198;6.824;2023-03-03T19:41:17;-21364.50;;;1.65;100.00
19890;BME280;10107;51.198;6.824;2023-03-03T19:45:24;-21368.00;;;1.78;100.00
19890;BME280;10107;51.198;6.824;2023-03-03T19:49:38;-21370.56;;;1.88;100.00
19890;BME280;10107;51.198;6.824;2023-03-03T19:53:49;-21372.84;;;1.97;100.00
19890;BME280;10107;51.198;6.824;2023-03-03T19:57:56;-21374.31;;;2.03;100.00
19890;BME280;10107;51.198;6.824;2023-03-03T20:02:08;-21376.19;;;2.10;100.00
19890;BME280;10107;51.198;6.824;2023-03-03T20:06:24;-21377.94;;;2.16;100.00
19890;BME280;10107;51.198;6.824;2023-03-03T20:10:40;-21379.41;;;2.22;100.00
19890;BME280;10107;51.198;6.824;2023-03-03T20:14:44;-21381.41;;;2.30;100.00
19890;BME280;10107;51.198;6.824;2023-03-03T20:18:53;-21382.75;;;2.35;100.00
19890;BME280;10107;51.198;6.824;2023-03-03T20:23:02;-21384.38;;;2.41;100.00
19890;BME280;10107;51.198;6.824;2023-03-03T20:27:14;-21385.19;;;2.44;100.00
19890;BME280;10107;51.198;6.824;2023-03-03T20:31:18;-21385.97;;;2.47;100.00
19890;BME280;10107;51.198;6.824;2023-03-03T20:35:24;-21387.06;;;2.51;100.00
19890;BME280;10107;51.198;6.824;2023-03-03T20:39:37;-21387.31;;;2.52;100.00
19890;BME280;10107;51.198;6.824;2023-03-03T20:48:06;-21388.53;;;2.57;100.00
19890;BME280;10107;51.198;6.824;2023-03-03T20:52:12;-21388.81;;;2.58;100.00
19890;BME280;10107;51.198;6.824;2023-03-03T20:56:18;-21388.66;;;2.57;100.00
19890;BME280;10107;51.198;6.824;2023-03-03T21:00:23;-21389.06;;;2.59;100.00
19890;BME280;10107;51.198;6.824;2023-03-03T21:04:30;-21388.81;;;2.58;100.00
19890;BME280;10107;51.198;6.824;2023-03-03T21:08:44;-21388.66;;;2.57;100.00
19890;BME280;10107;51.198;6.824;2023-03-03T21:12:45;-21388.13;;;2.55;100.00
19890;BME280;10107;51.198;6.824;2023-03-03T21:16:47;-21388.25;;;2.56;100.00
19890;BME280;10107;51.198;6.824;2023-03-03T21:20:51;-21388.13;;;2.55;100.00
19890;BME280;10107;51.198;6.824;2023-03-03T21:24:53;-21388.00;;;2.55;100.00
19890;BME280;10107;51.198;6.824;2023-03-03T21:28:58;-21387.84;;;2.54;100.00
19890;BME280;10107;51.198;6.824;2023-03-03T21:33:00;-21388.41;;;2.56;100.00
19890;BME280;10107;51.198;6.824;2023-03-03T21:37:05;-21388.53;;;2.57;100.00
19890;BME280;10107;51.198;6.824;2023-03-03T21:41:07;-21388.94;;;2.58;100.00
19890;BME280;10107;51.198;6.824;2023-03-03T21:45:09;-21388.81;;;2.58;100.00
19890;BME280;10107;51.198;6.824;2023-03-03T21:49:11;-21389.19;;;2.60;100.00
19890;BME280;10107;51.198;6.824;2023-03-03T21:53:14;-21389.59;;;2.61;100.00
19890;BME280;10107;51.198;6.824;2023-03-03T21:57:16;-21389.59;;;2.61;100.00
19890;BME280;10107;51.198;6.824;2023-03-03T22:01:17;-21390.00;;;2.63;100.00
19890;BME280;10107;51.198;6.824;2023-03-03T22:05:19;-21390.41;;;2.64;100.00
19890;BME280;10107;51.198;6.824;2023-03-03T22:09:22;-21391.06;;;2.67;100.00
19890;BME280;10107;51.198;6.824;2023-03-03T22:13:24;-21391.34;;;2.68;100.00
19890;BME280;10107;51.198;6.824;2023-03-03T22:17:26;-21391.63;;;2.69;100.00
19890;BME280;10107;51.198;6.824;2023-03-03T22:21:28;-21392.00;;;2.70;100.00
19890;BME280;10107;51.198;6.824;2023-03-03T22:25:30;-21392.81;;;2.73;100.00